createdAt,value
2018-06-07T00:01:10.146Z,22.60
2018-06-07T00:03:44.212Z,22.70
2018-06-07T00:06:18.309Z,22.70
2018-06-07T00:08:53.139Z,22.90
2018-06-07T00:11:27.197Z,22.80
2018-06-07T00:14:01.266Z,22.80
2018-06-07T00:16:35.363Z,22.90
2018-06-07T00:19:09.495Z,22.70
2018-06-07T00:21:43.619Z,22.70
2018-06-07T00:24:17.704Z,22.80
2018-06-07T00:26:51.878Z,22.70
2018-06-07T00:29:25.964Z,22.80
2018-06-07T00:31:59.930Z,22.80
2018-06-07T00:34:34.050Z,22.70
2018-06-07T00:37:08.050Z,22.60
2018-06-07T00:39:42.208Z,22.50
2018-06-07T00:42:16.393Z,22.60
2018-06-07T00:44:51.199Z,22.40
2018-06-07T00:47:25.225Z,22.30
2018-06-07T00:49:59.186Z,22.40
2018-06-07T00:52:33.150Z,22.40
2018-06-07T00:55:07.191Z,22.40
2018-06-07T00:57:41.322Z,22.30
2018-06-07T01:00:16.229Z,22.40
2018-06-07T01:02:51.240Z,22.30
2018-06-07T01:05:25.991Z,22.40
2018-06-07T01:08:00.099Z,22.30
2018-06-07T01:10:34.005Z,22.20
2018-06-07T01:13:08.866Z,22.30
2018-06-07T01:15:42.864Z,22.20
2018-06-07T01:18:17.051Z,22.40
2018-06-07T01:20:51.213Z,22.40
2018-06-07T01:23:25.194Z,22.40
2018-06-07T01:25:59.261Z,22.30
2018-06-07T01:28:33.195Z,22.50
2018-06-07T01:31:07.199Z,22.40
2018-06-07T01:33:41.362Z,22.50
2018-06-07T01:36:15.535Z,22.70
2018-06-07T01:38:50.495Z,22.70
2018-06-07T01:41:24.611Z,22.60
2018-06-07T01:43:58.738Z,22.70
2018-06-07T01:46:32.896Z,22.70
2018-06-07T01:49:07.002Z,22.40
2018-06-07T01:51:40.957Z,22.40
2018-06-07T01:54:15.071Z,22.40
2018-06-07T01:56:49.187Z,22.50
2018-06-07T01:59:24.002Z,22.40
2018-06-07T02:01:58.138Z,22.40
2018-06-07T02:04:32.232Z,22.20
2018-06-07T02:07:06.389Z,22.20
2018-06-07T02:09:40.550Z,22.20
2018-06-07T02:12:15.466Z,22.30
2018-06-07T02:14:49.518Z,22.20
2018-06-07T02:17:23.646Z,22.20
2018-06-07T02:19:57.619Z,22.10
2018-06-07T02:22:31.729Z,22.20
2018-06-07T02:25:05.771Z,22.10
2018-06-07T02:27:39.895Z,22.00
2018-06-07T02:30:14.579Z,21.80
2018-06-07T02:32:48.716Z,21.80
2018-06-07T02:35:22.853Z,21.70
2018-06-07T02:37:57.031Z,21.80
2018-06-07T02:40:30.942Z,21.60
2018-06-07T02:43:05.717Z,21.40
2018-06-07T02:45:39.784Z,21.40
2018-06-07T02:48:13.777Z,21.50
2018-06-07T02:50:47.661Z,21.60
2018-06-07T02:53:21.689Z,21.50
2018-06-07T02:55:55.794Z,21.30
2018-06-07T02:58:29.824Z,21.30
2018-06-07T03:01:03.908Z,21.30
2018-06-07T03:03:38.026Z,21.40
2018-06-07T03:06:12.122Z,21.30
2018-06-07T03:08:46.152Z,21.40
2018-06-07T03:11:20.169Z,21.50
2018-06-07T03:13:54.232Z,21.40
2018-06-07T03:16:28.277Z,21.40
2018-06-07T03:19:02.350Z,21.10
2018-06-07T03:21:36.334Z,20.90
2018-06-07T03:24:10.376Z,20.70
2018-06-07T03:26:44.245Z,20.80
2018-06-07T03:29:18.360Z,20.50
2018-06-07T03:31:52.369Z,20.50
2018-06-07T03:34:26.456Z,20.60
2018-06-07T03:37:00.477Z,20.80
2018-06-07T03:39:34.565Z,20.90
2018-06-07T03:42:09.331Z,20.90
2018-06-07T03:44:43.221Z,20.90
2018-06-07T03:47:17.287Z,21.00
2018-06-07T03:49:51.977Z,20.90
2018-06-07T03:52:25.921Z,20.90
2018-06-07T03:55:00.727Z,21.00
2018-06-07T03:57:35.432Z,20.90
2018-06-07T04:00:09.313Z,20.90
2018-06-07T04:02:43.290Z,20.70
2018-06-07T04:05:17.983Z,21.10
2018-06-07T04:07:52.675Z,21.00
2018-06-07T04:10:27.486Z,20.90
2018-06-07T04:13:01.631Z,21.00
2018-06-07T04:15:35.551Z,21.00
2018-06-07T04:18:09.615Z,21.10
2018-06-07T04:20:43.628Z,20.90
2018-06-07T04:23:17.580Z,21.00
2018-06-07T04:25:51.538Z,21.00
2018-06-07T04:28:25.498Z,21.10
2018-06-07T04:30:59.615Z,21.00
2018-06-07T04:33:33.673Z,21.00
2018-06-07T04:36:07.746Z,20.70
2018-06-07T04:38:41.939Z,21.00
2018-06-07T04:41:16.319Z,21.00
2018-06-07T04:43:50.544Z,20.80
2018-06-07T04:46:25.497Z,21.10
2018-06-07T04:48:59.601Z,21.00
2018-06-07T04:51:33.730Z,21.10
2018-06-07T04:54:07.704Z,21.10
2018-06-07T04:56:41.650Z,21.10
2018-06-07T04:59:15.738Z,21.10
2018-06-07T05:01:50.489Z,21.30
2018-06-07T05:04:24.558Z,21.20
2018-06-07T05:06:58.718Z,21.30
2018-06-07T05:09:32.750Z,21.30
2018-06-07T05:12:06.843Z,21.10
2018-06-07T05:14:40.923Z,21.20
2018-06-07T05:17:14.992Z,21.30
2018-06-07T05:19:49.915Z,21.50
2018-06-07T05:22:24.002Z,21.50
2018-06-07T05:24:58.153Z,21.50
2018-06-07T05:27:32.224Z,21.50
2018-06-07T05:30:06.335Z,21.50
2018-06-07T05:32:40.376Z,21.20
2018-06-07T05:35:14.496Z,21.40
2018-06-07T05:37:49.205Z,21.50
2018-06-07T05:40:23.313Z,21.40
2018-06-07T05:42:57.258Z,21.40
2018-06-07T05:45:31.252Z,21.40
2018-06-07T05:48:06.029Z,21.60
2018-06-07T05:50:40.081Z,21.60
2018-06-07T05:53:14.013Z,21.80
2018-06-07T05:55:47.874Z,21.90
2018-06-07T05:58:22.632Z,22.10
2018-06-07T06:00:56.757Z,22.10
2018-06-07T06:03:30.864Z,22.20
2018-06-07T06:06:05.782Z,22.00
2018-06-07T06:08:39.864Z,22.00
2018-06-07T06:11:14.778Z,21.90
2018-06-07T06:13:48.866Z,21.80
2018-06-07T06:16:22.886Z,22.00
2018-06-07T06:18:57.072Z,22.00
2018-06-07T06:21:31.161Z,21.80
2018-06-07T06:24:05.352Z,22.00
2018-06-07T06:26:39.473Z,22.00
2018-06-07T06:29:13.637Z,22.00
2018-06-07T06:31:48.558Z,22.00
2018-06-07T06:34:22.587Z,22.00
2018-06-07T06:36:56.553Z,22.20
2018-06-07T06:39:30.687Z,22.40
2018-06-07T06:42:04.861Z,22.40
2018-06-07T06:44:38.985Z,22.50
2018-06-07T06:47:13.162Z,22.40
2018-06-07T06:49:48.034Z,22.40
2018-06-07T06:52:22.079Z,22.40
2018-06-07T06:54:56.910Z,22.50
2018-06-07T06:57:31.134Z,22.50
2018-06-07T07:00:05.241Z,22.50
2018-06-07T07:02:39.362Z,22.50
2018-06-07T07:05:13.483Z,22.60
2018-06-07T07:07:47.657Z,22.70
2018-06-07T07:10:21.758Z,22.60
2018-06-07T07:12:55.826Z,22.60
2018-06-07T07:15:29.771Z,22.70
2018-06-07T07:18:03.936Z,22.80
2018-06-07T07:20:37.961Z,22.80
2018-06-07T07:23:12.788Z,22.90
2018-06-07T07:25:46.880Z,22.90
2018-06-07T07:28:20.773Z,22.80
2018-06-07T07:30:54.780Z,22.90
2018-06-07T07:33:29.414Z,23.00
2018-06-07T07:36:03.509Z,23.00
2018-06-07T07:38:37.564Z,23.20
2018-06-07T07:41:11.740Z,23.20
2018-06-07T07:43:45.866Z,23.10
2018-06-07T07:46:20.619Z,23.40
2018-06-07T07:48:54.925Z,23.30
2018-06-07T07:51:30.086Z,23.50
2018-06-07T07:54:05.234Z,23.40
2018-06-07T07:56:39.305Z,23.50
2018-06-07T07:59:13.454Z,23.60
2018-06-07T08:01:47.505Z,23.70
2018-06-07T08:04:21.884Z,23.70
2018-06-07T08:06:55.881Z,23.80
2018-06-07T08:09:29.961Z,23.80
2018-06-07T08:12:04.821Z,23.70
2018-06-07T08:14:39.174Z,23.70
2018-06-07T08:17:13.083Z,23.90
2018-06-07T08:19:47.575Z,24.00
2018-06-07T08:22:21.610Z,24.40
2018-06-07T08:24:55.808Z,24.60
2018-06-07T08:27:30.027Z,24.50
2018-06-07T08:30:04.029Z,24.90
2018-06-07T08:32:38.266Z,24.80
2018-06-07T08:35:12.339Z,24.80
2018-06-07T08:37:46.673Z,25.00
2018-06-07T08:40:20.841Z,24.90
2018-06-07T08:42:55.801Z,24.70
2018-06-07T08:45:30.121Z,24.70
2018-06-07T08:48:04.406Z,24.70
2018-06-07T08:50:38.494Z,24.80
2018-06-07T08:53:12.810Z,24.70
2018-06-07T08:55:47.066Z,24.70
2018-06-07T08:58:21.603Z,24.80
2018-06-07T09:00:55.648Z,24.90
2018-06-07T09:03:29.858Z,24.80
2018-06-07T09:06:03.971Z,24.80
2018-06-07T09:08:38.297Z,24.90
2018-06-07T09:11:13.143Z,25.00
2018-06-07T09:13:47.294Z,25.00
2018-06-07T09:16:22.245Z,25.10
2018-06-07T09:18:56.375Z,25.00
2018-06-07T09:21:31.565Z,24.90
2018-06-07T09:24:05.859Z,24.90
2018-06-07T09:26:39.832Z,25.10
2018-06-07T09:29:13.889Z,25.10
2018-06-07T09:31:47.950Z,25.10
2018-06-07T09:34:22.850Z,25.30
2018-06-07T09:36:57.994Z,25.30
2018-06-07T09:39:32.027Z,25.30
2018-06-07T09:42:06.142Z,25.50
2018-06-07T09:44:41.210Z,25.80
2018-06-07T09:47:16.349Z,25.80
2018-06-07T09:49:50.625Z,25.70
2018-06-07T09:52:24.756Z,25.90
2018-06-07T09:54:59.527Z,25.60
2018-06-07T09:57:33.798Z,25.90
2018-06-07T10:00:08.287Z,26.20
2018-06-07T10:02:42.656Z,26.10
2018-06-07T10:05:16.689Z,26.10
2018-06-07T10:07:51.045Z,25.90
2018-06-07T10:10:25.453Z,26.00
2018-06-07T10:13:01.821Z,26.00
2018-06-07T10:15:36.206Z,26.00
2018-06-07T10:18:11.009Z,26.20
2018-06-07T10:20:45.173Z,26.20
2018-06-07T10:23:19.102Z,26.50
2018-06-07T10:25:53.116Z,26.80
2018-06-07T10:28:27.810Z,27.20
2018-06-07T10:31:02.323Z,27.20
2018-06-07T10:33:36.332Z,27.30
2018-06-07T10:36:11.380Z,27.20
2018-06-07T10:38:46.220Z,26.90
2018-06-07T10:41:20.580Z,26.80
2018-06-07T10:43:54.858Z,26.60
2018-06-07T10:46:29.719Z,26.80
2018-06-07T10:49:04.038Z,26.80
2018-06-07T10:51:38.750Z,26.80
2018-06-07T10:54:13.013Z,27.30
2018-06-07T10:56:47.277Z,27.20
2018-06-07T10:59:21.522Z,27.60
2018-06-07T11:01:56.238Z,27.80
2018-06-07T11:04:30.894Z,27.80
2018-06-07T11:07:05.154Z,27.90
2018-06-07T11:09:39.230Z,28.20
2018-06-07T11:12:13.326Z,28.00
2018-06-07T11:14:47.917Z,28.00
2018-06-07T11:17:22.098Z,27.90
2018-06-07T11:19:57.102Z,27.80
2018-06-07T11:22:31.205Z,27.70
2018-06-07T11:25:05.850Z,28.50
2018-06-07T11:27:40.173Z,28.50
2018-06-07T11:30:14.489Z,28.50
2018-06-07T11:32:50.510Z,28.40
2018-06-07T11:35:25.490Z,28.80
2018-06-07T11:37:59.453Z,28.80
2018-06-07T11:40:33.603Z,29.10
2018-06-07T11:43:07.691Z,29.10
2018-06-07T11:45:41.751Z,29.30
2018-06-07T11:48:16.593Z,29.30
2018-06-07T11:50:50.764Z,29.20
2018-06-07T11:53:25.470Z,29.30
2018-06-07T11:55:59.606Z,29.30
2018-06-07T11:58:34.449Z,28.80
2018-06-07T12:01:08.489Z,28.80
2018-06-07T12:03:42.675Z,28.20
2018-06-07T12:06:16.810Z,28.40
2018-06-07T12:08:51.126Z,28.80
2018-06-07T12:11:25.029Z,28.60
2018-06-07T12:14:00.165Z,28.50
2018-06-07T12:16:34.190Z,28.60
2018-06-07T12:19:08.249Z,28.40
2018-06-07T12:21:42.869Z,28.40
2018-06-07T12:24:17.121Z,28.10
2018-06-07T12:26:51.054Z,28.50
2018-06-07T12:29:25.216Z,28.80
2018-06-07T12:31:59.134Z,28.80
2018-06-07T12:34:33.182Z,29.20
2018-06-07T12:37:07.138Z,29.30
2018-06-07T12:39:42.042Z,29.70
2018-06-07T12:42:16.945Z,29.20
2018-06-07T12:44:51.787Z,29.20
2018-06-07T12:47:26.834Z,29.00
2018-06-07T12:50:00.998Z,29.00
2018-06-07T12:52:35.069Z,28.80
2018-06-07T12:55:09.093Z,28.30
2018-06-07T12:57:43.239Z,28.40
2018-06-07T13:00:17.336Z,28.20
2018-06-07T13:02:51.393Z,28.00
2018-06-07T13:05:26.385Z,27.70
2018-06-07T13:08:00.506Z,27.90
2018-06-07T13:10:34.809Z,27.30
2018-06-07T13:13:09.958Z,27.60
2018-06-07T13:15:44.124Z,27.60
2018-06-07T13:18:18.317Z,27.90
2018-06-07T13:20:52.706Z,27.90
2018-06-07T13:23:27.223Z,28.40
2018-06-07T13:26:01.450Z,28.40
2018-06-07T13:28:36.577Z,28.70
2018-06-07T13:31:10.761Z,28.70
2018-06-07T13:33:44.941Z,29.20
2018-06-07T13:36:18.966Z,29.10
2018-06-07T13:38:53.011Z,29.60
2018-06-07T13:41:27.186Z,29.30
2018-06-07T13:44:02.142Z,29.40
2018-06-07T13:46:36.441Z,29.60
2018-06-07T13:49:11.507Z,30.50
2018-06-07T13:51:45.946Z,30.50
2018-06-07T13:54:20.821Z,29.80
2018-06-07T13:56:55.212Z,29.80
2018-06-07T13:59:30.151Z,29.50
2018-06-07T14:02:05.116Z,30.00
2018-06-07T14:04:39.264Z,30.00
2018-06-07T14:07:13.237Z,29.80
2018-06-07T14:09:47.501Z,30.00
2018-06-07T14:12:21.396Z,29.90
2018-06-07T14:14:55.764Z,30.40
2018-06-07T14:17:31.168Z,30.40
2018-06-07T14:20:05.705Z,30.50
2018-06-07T14:22:39.942Z,30.90
2018-06-07T14:25:14.710Z,31.00
2018-06-07T14:27:48.993Z,31.00
2018-06-07T14:30:23.341Z,31.10
2018-06-07T14:32:57.673Z,31.30
2018-06-07T14:35:31.862Z,31.20
2018-06-07T14:38:07.125Z,30.50
2018-06-07T14:40:41.345Z,30.50
2018-06-07T14:43:15.591Z,30.40
2018-06-07T14:45:50.358Z,32.10
2018-06-07T14:48:24.554Z,32.00
2018-06-07T14:50:58.473Z,31.20
2018-06-07T14:53:33.385Z,33.50
2018-06-07T14:56:07.417Z,33.80
2018-06-07T14:58:41.462Z,34.10
2018-06-07T15:01:15.442Z,34.10
2018-06-07T15:03:50.265Z,31.40
2018-06-07T15:06:24.546Z,31.40
2018-06-07T15:08:58.626Z,35.20
2018-06-07T15:11:32.554Z,33.60
2018-06-07T15:14:06.755Z,34.20
2018-06-07T15:16:41.777Z,35.40
2018-06-07T15:19:16.698Z,35.40
2018-06-07T15:21:50.714Z,35.50
2018-06-07T15:24:24.909Z,36.20
2018-06-07T15:26:59.021Z,36.30
2018-06-07T15:29:33.074Z,37.60
2018-06-07T15:32:07.394Z,36.60
2018-06-07T15:34:41.598Z,35.70
2018-06-07T15:37:15.910Z,36.60
2018-06-07T15:39:50.151Z,35.60
2018-06-07T15:42:24.055Z,37.20
2018-06-07T15:44:57.984Z,37.80
2018-06-07T15:47:32.037Z,37.70
2018-06-07T15:50:07.477Z,36.00
2018-06-07T15:52:41.719Z,36.00
2018-06-07T15:55:15.780Z,35.00
2018-06-07T15:57:49.965Z,34.00
2018-06-07T16:00:24.430Z,35.60
2018-06-07T16:02:58.333Z,37.80
2018-06-07T16:05:32.547Z,37.40
2018-06-07T16:08:06.447Z,37.90
2018-06-07T16:10:40.512Z,38.50
2018-06-07T16:13:14.797Z,38.40
2018-06-07T16:15:49.018Z,39.00
2018-06-07T16:18:23.202Z,37.80
2018-06-07T16:20:57.269Z,38.70
2018-06-07T16:23:31.473Z,37.80
2018-06-07T16:26:05.526Z,36.10
2018-06-07T16:28:40.201Z,38.10
2018-06-07T16:31:14.987Z,38.10
2018-06-07T16:33:49.986Z,38.00
2018-06-07T16:36:24.854Z,36.00
2018-06-07T16:38:59.183Z,36.00
2018-06-07T16:41:33.136Z,33.90
2018-06-07T16:44:07.192Z,32.70
2018-06-07T16:46:42.162Z,32.40
2018-06-07T16:49:16.886Z,31.70
2018-06-07T16:51:51.049Z,31.60
2018-06-07T16:54:25.194Z,30.80
2018-06-07T16:56:59.321Z,29.80
2018-06-07T16:59:33.314Z,29.30
2018-06-07T17:02:07.352Z,29.10
2018-06-07T17:04:43.263Z,29.10
2018-06-07T17:07:17.263Z,29.10
2018-06-07T17:09:51.371Z,28.50
2018-06-07T17:12:25.584Z,28.30
2018-06-07T17:14:59.774Z,28.30
2018-06-07T17:17:34.740Z,28.90
2018-06-07T17:20:11.696Z,28.10
2018-06-07T17:22:47.449Z,28.60
2018-06-07T17:25:22.159Z,28.60
2018-06-07T17:27:58.815Z,28.90
2018-06-07T17:30:33.245Z,28.80
2018-06-07T17:33:09.105Z,29.00
2018-06-07T17:35:46.882Z,28.30
2018-06-07T17:38:21.643Z,28.30
2018-06-07T17:40:57.579Z,28.10
2018-06-07T17:43:32.552Z,28.10
2018-06-07T17:46:07.560Z,28.80
2018-06-07T17:48:41.526Z,28.80
2018-06-07T17:51:15.649Z,28.80
2018-06-07T17:53:49.785Z,28.90
2018-06-07T17:56:24.232Z,28.60
2018-06-07T17:58:59.400Z,28.40
2018-06-07T18:01:33.587Z,28.40
2018-06-07T18:04:08.005Z,28.30
2018-06-07T18:06:42.085Z,28.80
2018-06-07T18:09:16.025Z,29.00
2018-06-07T18:11:50.166Z,29.10
2018-06-07T18:14:24.710Z,29.00
2018-06-07T18:16:59.759Z,29.10
2018-06-07T18:19:34.912Z,29.40
2018-06-07T18:22:09.815Z,29.20
2018-06-07T18:24:44.861Z,28.80
2018-06-07T18:27:19.471Z,28.80
2018-06-07T18:29:53.847Z,28.90
2018-06-07T18:32:28.834Z,28.50
2018-06-07T18:35:03.507Z,28.50
2018-06-07T18:37:38.119Z,28.40
2018-06-07T18:40:12.268Z,28.50
2018-06-07T18:42:46.765Z,28.70
2018-06-07T18:45:20.715Z,28.10
2018-06-07T18:47:54.913Z,28.40
2018-06-07T18:50:28.961Z,28.40
2018-06-07T18:53:03.066Z,28.50
2018-06-07T18:55:37.433Z,28.00
2018-06-07T18:58:11.659Z,27.80
2018-06-07T19:00:46.080Z,28.30
2018-06-07T19:03:20.521Z,28.20
2018-06-07T19:05:54.756Z,28.30
2018-06-07T19:08:29.035Z,28.20
2018-06-07T19:11:03.971Z,28.10
2018-06-07T19:13:38.139Z,28.20
2018-06-07T19:16:13.034Z,28.00
2018-06-07T19:18:47.219Z,28.00
2018-06-07T19:21:21.311Z,27.80
2018-06-07T19:23:56.440Z,27.60
2018-06-07T19:26:30.696Z,27.40
2018-06-07T19:29:04.798Z,26.90
2018-06-07T19:31:38.794Z,26.70
2018-06-07T19:34:12.946Z,27.30
2018-06-07T19:36:47.383Z,27.30
2018-06-07T19:39:24.154Z,27.20
2018-06-07T19:41:58.977Z,26.80
2018-06-07T19:44:32.897Z,26.70
2018-06-07T19:47:07.283Z,26.70
2018-06-07T19:49:41.805Z,27.20
2018-06-07T19:52:16.239Z,27.20
2018-06-07T19:54:51.360Z,27.30
2018-06-07T19:57:25.456Z,27.30
2018-06-07T19:59:59.565Z,27.30
2018-06-07T20:02:33.925Z,27.20
2018-06-07T20:05:08.135Z,26.80
2018-06-07T20:07:42.089Z,26.60
2018-06-07T20:10:16.226Z,26.60
2018-06-07T20:12:50.270Z,26.70
2018-06-07T20:15:24.336Z,26.90
2018-06-07T20:17:58.589Z,26.30
2018-06-07T20:20:33.279Z,26.60
2018-06-07T20:23:14.570Z,26.60
2018-06-07T20:28:27.760Z,25.80
2018-06-07T20:31:02.578Z,26.00
2018-06-07T20:33:36.514Z,26.00
2018-06-07T20:36:11.083Z,25.50
2018-06-07T20:38:45.429Z,25.60
2018-06-07T20:41:19.854Z,25.00
2018-06-07T20:43:54.283Z,25.30
2018-06-07T20:46:29.281Z,25.30
2018-06-07T20:49:03.509Z,25.30
2018-06-07T20:51:37.507Z,25.20
2018-06-07T20:54:11.669Z,25.30
2018-06-07T20:56:45.830Z,25.40
2018-06-07T20:59:20.022Z,25.10
2018-06-07T21:01:54.149Z,25.20
2018-06-07T21:04:28.534Z,25.10
2018-06-07T21:07:02.485Z,24.80
2018-06-07T21:09:37.358Z,24.90
2018-06-07T21:12:11.569Z,25.10
2018-06-07T21:14:46.372Z,24.60
2018-06-07T21:17:20.933Z,24.60
2018-06-07T21:19:54.944Z,24.50
2018-06-07T21:22:29.065Z,24.10
2018-06-07T21:25:03.428Z,24.10
2018-06-07T21:27:37.457Z,24.20
2018-06-07T21:30:11.501Z,24.10
2018-06-07T21:32:46.378Z,23.90
2018-06-07T21:35:20.992Z,23.90
2018-06-07T21:37:55.073Z,23.90
2018-06-07T21:40:29.084Z,24.10
2018-06-07T21:43:03.166Z,24.10
2018-06-07T21:45:37.295Z,24.10
2018-06-07T21:48:11.472Z,24.20
2018-06-07T21:50:46.290Z,24.20
2018-06-07T21:53:20.417Z,24.20
2018-06-07T21:55:54.393Z,24.20
2018-06-07T21:58:29.296Z,23.60
2018-06-07T22:01:03.430Z,23.60
2018-06-07T22:03:37.438Z,23.70
2018-06-07T22:06:11.516Z,23.80
2018-06-07T22:08:45.601Z,24.20
2018-06-07T22:11:19.713Z,24.70
2018-06-07T22:13:53.692Z,24.30
2018-06-07T22:16:27.742Z,24.60
2018-06-07T22:19:02.731Z,24.10
2018-06-07T22:21:36.893Z,24.10
2018-06-07T22:24:11.134Z,23.90
2018-06-07T22:26:45.345Z,23.70
2018-06-07T22:29:19.416Z,23.60
2018-06-07T22:31:53.533Z,23.80
2018-06-07T22:34:27.478Z,23.80
2018-06-07T22:37:02.318Z,23.60
2018-06-07T22:39:36.201Z,23.60
2018-06-07T22:42:10.369Z,23.40
2018-06-07T22:44:44.453Z,23.70
2018-06-07T22:47:18.434Z,23.70
2018-06-07T22:49:52.429Z,23.50
2018-06-07T22:52:26.641Z,23.30
2018-06-07T22:55:00.798Z,23.20
2018-06-07T22:57:34.987Z,23.20
2018-06-07T23:00:09.241Z,23.00
2018-06-07T23:02:44.150Z,23.80
2018-06-07T23:05:18.240Z,23.70
2018-06-07T23:07:52.272Z,24.00
2018-06-07T23:10:26.513Z,24.10
2018-06-07T23:13:00.480Z,24.10
2018-06-07T23:15:35.317Z,24.20
2018-06-07T23:18:10.057Z,24.20
2018-06-07T23:20:44.162Z,24.20
2018-06-07T23:23:18.925Z,24.00
2018-06-07T23:25:53.018Z,24.00
2018-06-07T23:28:26.943Z,24.20
2018-06-07T23:31:01.042Z,24.00
2018-06-07T23:33:35.162Z,24.00
2018-06-07T23:36:09.246Z,24.00
2018-06-07T23:38:44.209Z,23.80
2018-06-07T23:41:18.179Z,23.80
2018-06-07T23:43:52.189Z,23.70
2018-06-07T23:46:26.209Z,23.60
2018-06-07T23:49:00.271Z,23.60
2018-06-07T23:51:34.447Z,23.60
2018-06-07T23:54:08.346Z,23.60
2018-06-07T23:56:42.453Z,23.50
2018-06-07T23:59:16.431Z,23.50
